createdAt,value
2023-03-28T00:00:54.707Z,3.25
2023-03-28T00:03:27.514Z,3.40
2023-03-28T00:06:01.445Z,3.13
2023-03-28T00:08:32.754Z,3.20
2023-03-28T00:11:09.596Z,3.25
2023-03-28T00:13:43.249Z,2.80
2023-03-28T00:16:33.976Z,3.58
2023-03-28T00:19:10.631Z,2.65
2023-03-28T00:21:47.195Z,2.60
2023-03-28T00:24:24.056Z,2.60
2023-03-28T00:26:55.579Z,2.97
2023-03-28T00:29:30.322Z,3.28
2023-03-28T00:32:03.591Z,3.03
2023-03-28T00:34:34.503Z,2.58
2023-03-28T00:37:05.598Z,2.50
2023-03-28T00:39:36.670Z,2.80
2023-03-28T00:42:20.384Z,2.40
2023-03-28T00:44:55.755Z,2.58
2023-03-28T00:47:40.981Z,2.25
2023-03-28T00:50:51.338Z,2.80
2023-03-28T00:53:28.602Z,2.55
2023-03-28T00:56:05.093Z,2.80
2023-03-28T00:58:42.412Z,2.72
2023-03-28T01:01:18.513Z,2.90
2023-03-28T01:04:20.706Z,2.20
2023-03-28T01:06:57.123Z,2.38
2023-03-28T01:09:28.798Z,2.47
2023-03-28T01:12:02.008Z,4.22
2023-03-28T01:14:33.995Z,2.70
2023-03-28T01:17:10.986Z,2.70
2023-03-28T01:20:01.562Z,3.25
2023-03-28T01:23:07.792Z,2.78
2023-03-28T01:26:13.701Z,3.45
2023-03-28T01:29:23.898Z,2.95
2023-03-28T01:32:32.088Z,2.88
2023-03-28T01:35:36.858Z,3.22
2023-03-28T01:38:16.037Z,2.80
2023-03-28T01:40:53.557Z,2.85
2023-03-28T01:43:38.730Z,2.95
2023-03-28T01:46:18.920Z,2.72
2023-03-28T01:49:11.389Z,2.45
2023-03-28T01:51:57.215Z,2.80
2023-03-28T01:54:35.600Z,3.15
2023-03-28T01:57:13.899Z,2.80
2023-03-28T01:59:48.051Z,3.40
2023-03-28T02:02:30.242Z,2.72
2023-03-28T02:05:04.411Z,2.90
2023-03-28T02:07:36.778Z,3.55
2023-03-28T02:10:12.776Z,3.15
2023-03-28T02:12:48.815Z,3.05
2023-03-28T02:15:22.407Z,3.20
2023-03-28T02:18:00.691Z,4.13
2023-03-28T02:20:35.348Z,3.13
2023-03-28T02:23:11.722Z,3.20
2023-03-28T02:25:45.189Z,3.40
2023-03-28T02:28:17.428Z,3.30
2023-03-28T02:30:48.798Z,3.25
2023-03-28T02:33:41.997Z,3.42
2023-03-28T02:36:33.636Z,3.80
2023-03-28T02:39:20.992Z,3.83
2023-03-28T02:42:09.931Z,3.38
2023-03-28T02:44:55.899Z,2.85
2023-03-28T02:47:36.863Z,3.58
2023-03-28T02:50:21.396Z,4.60
2023-03-28T02:52:58.733Z,4.60
2023-03-28T02:56:07.879Z,4.47
2023-03-28T02:58:48.848Z,4.38
2023-03-28T03:01:19.833Z,4.50
2023-03-28T03:03:51.088Z,4.07
2023-03-28T03:06:22.110Z,4.65
2023-03-28T03:08:53.061Z,4.35
2023-03-28T03:11:25.177Z,4.53
2023-03-28T03:14:00.420Z,4.85
2023-03-28T03:16:31.806Z,5.25
2023-03-28T03:19:02.734Z,4.55
2023-03-28T03:21:35.316Z,5.15
2023-03-28T03:24:06.714Z,4.43
2023-03-28T03:26:43.324Z,5.10
2023-03-28T03:29:17.810Z,4.97
2023-03-28T03:31:49.061Z,4.65
2023-03-28T03:34:27.084Z,4.63
2023-03-28T03:37:04.522Z,4.80
2023-03-28T03:39:39.130Z,4.45
2023-03-28T03:42:10.013Z,4.82
2023-03-28T03:44:43.497Z,5.60
2023-03-28T03:47:15.144Z,5.60
2023-03-28T03:49:46.298Z,4.97
2023-03-28T03:52:17.237Z,5.10
2023-03-28T03:54:48.071Z,5.72
2023-03-28T03:57:20.562Z,5.43
2023-03-28T03:59:54.172Z,6.53
2023-03-28T04:02:25.006Z,5.70
2023-03-28T04:05:00.161Z,5.78
2023-03-28T04:07:31.123Z,6.68
2023-03-28T04:10:02.402Z,5.93
2023-03-28T04:12:33.218Z,5.72
2023-03-28T04:15:07.478Z,5.80
2023-03-28T04:17:41.485Z,5.80
2023-03-28T04:20:16.233Z,6.15
2023-03-28T04:22:48.446Z,6.70
2023-03-28T04:25:19.511Z,6.45
2023-03-28T04:28:04.037Z,5.93
2023-03-28T04:30:53.461Z,6.60
2023-03-28T04:33:26.643Z,6.72
2023-03-28T04:36:00.794Z,6.03
2023-03-28T04:38:36.489Z,5.85
2023-03-28T04:41:08.457Z,5.90
2023-03-28T04:43:39.418Z,6.90
2023-03-28T04:46:14.581Z,6.80
2023-03-28T04:48:48.840Z,6.25
2023-03-28T04:51:39.708Z,7.65
2023-03-28T04:54:10.589Z,7.00
2023-03-28T04:56:41.750Z,5.97
2023-03-28T04:59:14.815Z,6.40
2023-03-28T05:01:54.370Z,6.63
2023-03-28T05:04:26.792Z,6.30
2023-03-28T05:06:57.836Z,7.93
2023-03-28T05:09:31.944Z,7.07
2023-03-28T05:12:08.476Z,6.68
2023-03-28T05:14:43.085Z,7.05
2023-03-28T05:17:18.433Z,6.15
2023-03-28T05:19:49.392Z,6.40
2023-03-28T05:22:23.589Z,7.05
2023-03-28T05:24:54.437Z,7.50
2023-03-28T05:27:25.682Z,6.90
2023-03-28T05:29:59.435Z,6.70
2023-03-28T05:32:33.126Z,6.93
2023-03-28T05:35:04.487Z,7.82
2023-03-28T05:37:37.529Z,6.43
2023-03-28T05:40:11.801Z,6.72
2023-03-28T05:42:43.045Z,6.97
2023-03-28T05:45:14.801Z,7.28
2023-03-28T05:47:57.237Z,7.63
2023-03-28T05:50:29.190Z,6.88
2023-03-28T05:53:03.418Z,5.95
2023-03-28T05:55:35.641Z,6.30
2023-03-28T05:58:07.886Z,6.68
2023-03-28T06:00:48.878Z,6.80
2023-03-28T06:03:22.572Z,7.15
2023-03-28T06:06:13.701Z,8.05
2023-03-28T06:08:44.750Z,6.97
2023-03-28T06:11:17.011Z,6.03
2023-03-28T06:13:49.453Z,7.38
2023-03-28T06:16:30.078Z,6.75
2023-03-28T06:19:17.203Z,6.50
2023-03-28T06:21:49.321Z,6.55
2023-03-28T06:24:22.919Z,6.40
2023-03-28T06:26:54.103Z,6.72
2023-03-28T06:29:24.922Z,7.13
2023-03-28T06:31:55.846Z,7.13
2023-03-28T06:34:29.311Z,6.47
2023-03-28T06:37:01.892Z,6.90
2023-03-28T06:39:32.940Z,6.20
2023-03-28T06:42:03.833Z,5.90
2023-03-28T06:44:34.708Z,5.77
2023-03-28T06:47:05.963Z,6.27
2023-03-28T06:49:39.462Z,6.80
2023-03-28T06:52:19.768Z,7.23
2023-03-28T06:54:51.440Z,6.70
2023-03-28T06:57:22.539Z,9.90
2023-03-28T07:00:16.932Z,6.40
2023-03-28T07:02:47.934Z,7.63
2023-03-28T07:05:33.812Z,6.90
2023-03-28T07:08:05.118Z,7.07
2023-03-28T07:10:39.142Z,6.20
2023-03-28T07:13:11.173Z,6.00
2023-03-28T07:15:42.240Z,5.53
2023-03-28T07:18:13.160Z,5.87
2023-03-28T07:20:52.003Z,7.07
2023-03-28T07:23:38.343Z,6.17
2023-03-28T07:26:11.194Z,7.67
2023-03-28T07:28:42.221Z,5.30
2023-03-28T07:31:13.969Z,5.93
2023-03-28T07:33:51.973Z,7.13
2023-03-28T07:36:25.576Z,6.03
2023-03-28T07:38:56.801Z,6.80
2023-03-28T07:41:27.854Z,7.40
2023-03-28T07:43:58.957Z,5.07
2023-03-28T07:46:33.429Z,5.40
2023-03-28T07:49:07.025Z,6.53
2023-03-28T07:51:45.614Z,7.00
2023-03-28T07:54:18.060Z,5.23
2023-03-28T07:56:49.608Z,5.20
2023-03-28T07:59:21.168Z,5.50
2023-03-28T08:01:52.265Z,5.47
2023-03-28T08:04:28.247Z,5.50
2023-03-28T08:07:02.469Z,5.00
2023-03-28T08:09:33.931Z,5.50
2023-03-28T08:12:07.692Z,5.47
2023-03-28T08:14:38.598Z,4.90
2023-03-28T08:17:52.979Z,4.60
2023-03-28T08:20:44.009Z,5.10
2023-03-28T08:23:22.617Z,3.50
2023-03-28T08:26:04.935Z,4.50
2023-03-28T08:28:37.398Z,5.47
2023-03-28T08:31:14.416Z,3.73
2023-03-28T08:33:48.834Z,3.70
2023-03-28T08:36:20.114Z,3.57
2023-03-28T08:39:00.648Z,3.43
2023-03-28T08:41:54.100Z,4.60
2023-03-28T08:44:47.261Z,4.17
2023-03-28T08:47:27.062Z,3.03
2023-03-28T08:50:02.646Z,2.90
2023-03-28T08:52:35.772Z,2.60
2023-03-28T08:55:25.388Z,2.30
2023-03-28T08:58:00.955Z,2.30
2023-03-28T09:00:34.477Z,2.87
2023-03-28T09:03:12.468Z,2.40
2023-03-28T09:05:50.052Z,2.10
2023-03-28T09:08:52.572Z,2.43
2023-03-28T09:11:36.368Z,2.63
2023-03-28T09:14:24.654Z,2.60
2023-03-28T09:17:07.317Z,3.07
2023-03-28T09:20:00.440Z,2.63
2023-03-28T09:22:40.724Z,3.23
2023-03-28T09:25:37.786Z,3.77
2023-03-28T09:28:21.703Z,3.27
2023-03-28T09:30:56.977Z,2.73
2023-03-28T09:33:31.512Z,2.60
2023-03-28T09:36:04.363Z,4.07
2023-03-28T09:38:39.363Z,2.20
2023-03-28T09:41:21.190Z,2.20
2023-03-28T09:44:00.101Z,2.20
2023-03-28T09:46:35.860Z,2.70
2023-03-28T09:49:07.366Z,2.33
2023-03-28T09:51:38.643Z,2.40
2023-03-28T09:54:13.888Z,3.40
2023-03-28T09:56:47.239Z,2.33
2023-03-28T09:59:29.124Z,2.03
2023-03-28T10:02:04.528Z,2.17
2023-03-28T10:04:38.470Z,2.17
2023-03-28T10:07:34.683Z,1.90
2023-03-28T10:10:22.570Z,2.13
2023-03-28T10:13:09.467Z,2.30
2023-03-28T10:15:50.378Z,2.17
2023-03-28T10:18:24.303Z,1.83
2023-03-28T10:20:56.410Z,1.60
2023-03-28T10:23:28.275Z,1.60
2023-03-28T10:26:05.258Z,1.80
2023-03-28T10:28:38.556Z,1.67
2023-03-28T10:31:29.523Z,1.70
2023-03-28T10:34:02.815Z,1.83
2023-03-28T10:36:37.635Z,1.37
2023-03-28T10:39:25.008Z,1.60
2023-03-28T10:41:56.456Z,2.43
2023-03-28T10:44:31.391Z,1.27
2023-03-28T10:47:07.780Z,1.90
2023-03-28T10:49:47.627Z,1.47
2023-03-28T10:52:30.126Z,1.70
2023-03-28T10:55:18.439Z,1.23
2023-03-28T10:58:14.095Z,2.20
2023-03-28T11:00:49.064Z,2.70
2023-03-28T11:03:59.161Z,2.47
2023-03-28T11:06:37.965Z,2.10
2023-03-28T11:09:19.141Z,2.20
2023-03-28T11:12:01.864Z,1.77
2023-03-28T11:15:00.009Z,2.30
2023-03-28T11:17:44.492Z,1.80
2023-03-28T11:20:40.460Z,1.87
2023-03-28T11:23:25.512Z,2.37
2023-03-28T11:29:36.584Z,2.13
2023-03-28T11:32:23.196Z,1.90
2023-03-28T11:35:04.510Z,2.23
2023-03-28T11:37:43.137Z,1.70
2023-03-28T11:40:24.437Z,2.10
2023-03-28T11:43:00.331Z,1.97
2023-03-28T11:45:50.332Z,1.77
2023-03-28T11:48:29.102Z,2.00
2023-03-28T11:51:07.347Z,1.50
2023-03-28T11:53:47.541Z,2.10
2023-03-28T11:56:42.795Z,1.70
2023-03-28T11:59:18.615Z,2.17
2023-03-28T12:01:55.345Z,2.03
2023-03-28T12:04:30.848Z,2.17
2023-03-28T12:07:14.362Z,1.83
2023-03-28T12:10:00.415Z,1.90
2023-03-28T12:12:38.980Z,1.80
2023-03-28T12:15:16.701Z,1.80
2023-03-28T12:17:51.025Z,2.13
2023-03-28T12:20:43.553Z,2.30
2023-03-28T12:23:40.735Z,1.63
2023-03-28T12:26:24.571Z,1.90
2023-03-28T12:28:58.318Z,1.93
2023-03-28T12:31:34.518Z,1.73
2023-03-28T12:34:12.822Z,1.80
2023-03-28T12:36:51.213Z,1.60
2023-03-28T12:39:35.520Z,1.93
2023-03-28T12:42:13.214Z,1.90
2023-03-28T12:45:41.432Z,2.27
2023-03-28T12:48:23.620Z,1.83
2023-03-28T12:50:59.380Z,2.10
2023-03-28T12:53:35.849Z,1.73
2023-03-28T12:56:09.017Z,2.07
2023-03-28T12:58:43.260Z,2.13
2023-03-28T13:01:43.382Z,1.80
2023-03-28T13:04:26.953Z,2.03
2023-03-28T13:07:18.271Z,2.40
2023-03-28T13:10:02.463Z,2.40
2023-03-28T13:12:50.595Z,1.90
2023-03-28T13:15:34.316Z,1.83
2023-03-28T13:18:29.303Z,1.87
2023-03-28T13:21:04.986Z,2.37
2023-03-28T13:23:51.501Z,1.87
2023-03-28T13:26:24.888Z,2.93
2023-03-28T13:29:02.590Z,1.50
2023-03-28T13:31:36.437Z,1.93
2023-03-28T13:34:08.051Z,1.53
2023-03-28T13:36:39.699Z,1.87
2023-03-28T13:39:28.745Z,1.37
2023-03-28T13:42:03.912Z,1.60
2023-03-28T13:44:42.017Z,1.37
2023-03-28T13:47:38.552Z,2.03
2023-03-28T13:50:24.768Z,1.27
2023-03-28T13:52:56.078Z,1.70
2023-03-28T13:55:28.491Z,1.27
2023-03-28T13:58:04.491Z,1.40
2023-03-28T14:00:35.468Z,1.40
2023-03-28T14:03:16.480Z,2.10
2023-03-28T14:05:48.848Z,1.13
2023-03-28T14:08:25.778Z,1.27
2023-03-28T14:10:57.082Z,1.57
2023-03-28T14:13:31.259Z,2.67
2023-03-28T14:16:02.316Z,1.27
2023-03-28T14:18:39.831Z,1.63
2023-03-28T14:21:11.130Z,1.70
2023-03-28T14:23:44.222Z,1.50
2023-03-28T14:26:21.476Z,1.60
2023-03-28T14:28:54.588Z,1.40
2023-03-28T14:31:34.435Z,2.33
2023-03-28T14:34:19.046Z,1.60
2023-03-28T14:37:06.846Z,1.63
2023-03-28T14:39:41.828Z,1.70
2023-03-28T14:42:17.946Z,1.57
2023-03-28T14:44:52.908Z,1.30
2023-03-28T14:47:29.625Z,1.93
2023-03-28T14:50:04.774Z,1.33
2023-03-28T14:52:41.095Z,1.03
2023-03-28T14:55:18.958Z,1.40
2023-03-28T14:57:51.857Z,1.40
2023-03-28T15:00:26.553Z,1.20
2023-03-28T15:02:58.479Z,1.20
2023-03-28T15:05:32.225Z,1.80
2023-03-28T15:08:04.991Z,1.50
2023-03-28T15:10:36.484Z,1.30
2023-03-28T15:13:12.354Z,1.50
2023-03-28T15:15:47.153Z,1.83
2023-03-28T15:18:25.548Z,1.83
2023-03-28T15:21:03.766Z,1.60
2023-03-28T15:23:37.933Z,1.40
2023-03-28T15:26:13.047Z,2.30
2023-03-28T15:28:43.958Z,1.20
2023-03-28T15:31:15.432Z,1.60
2023-03-28T15:33:49.650Z,1.40
2023-03-28T15:36:26.814Z,1.50
2023-03-28T15:39:03.448Z,1.77
2023-03-28T15:41:46.135Z,1.60
2023-03-28T15:44:29.930Z,1.60
2023-03-28T15:47:07.678Z,1.40
2023-03-28T15:49:39.959Z,1.70
2023-03-28T15:52:20.262Z,2.23
2023-03-28T15:54:57.089Z,2.07
2023-03-28T15:57:31.032Z,2.10
2023-03-28T16:00:02.640Z,1.80
2023-03-28T16:02:37.402Z,1.77
2023-03-28T16:05:32.033Z,1.90
2023-03-28T16:08:05.793Z,2.40
2023-03-28T16:10:37.773Z,2.57
2023-03-28T16:13:14.464Z,2.23
2023-03-28T16:15:45.773Z,1.77
2023-03-28T16:18:17.050Z,1.50
2023-03-28T16:20:48.194Z,1.63
2023-03-28T16:23:23.999Z,1.50
2023-03-28T16:25:56.194Z,1.53
2023-03-28T16:28:27.565Z,1.57
2023-03-28T16:30:58.536Z,1.60
2023-03-28T16:33:29.719Z,1.67
2023-03-28T16:36:01.275Z,1.83
2023-03-28T16:38:38.607Z,2.17
2023-03-28T16:41:10.388Z,1.60
2023-03-28T16:43:41.378Z,1.17
2023-03-28T16:46:13.841Z,1.77
2023-03-28T16:48:45.272Z,1.53
2023-03-28T16:51:16.241Z,1.90
2023-03-28T16:53:49.814Z,1.80
2023-03-28T16:56:21.009Z,1.70
2023-03-28T16:58:52.096Z,2.00
2023-03-28T17:01:23.333Z,1.70
2023-03-28T17:03:55.784Z,1.77
2023-03-28T17:06:27.777Z,1.97
2023-03-28T17:09:04.741Z,1.37
2023-03-28T17:11:40.279Z,1.60
2023-03-28T17:14:11.754Z,2.23
2023-03-28T17:16:45.235Z,1.80
2023-03-28T17:19:23.189Z,1.73
2023-03-28T17:21:54.266Z,1.90
2023-03-28T17:24:28.127Z,1.77
2023-03-28T17:26:59.273Z,1.93
2023-03-28T17:29:30.310Z,1.67
2023-03-28T17:32:02.981Z,2.07
2023-03-28T17:34:35.969Z,5.07
2023-03-28T17:37:07.061Z,1.97
2023-03-28T17:39:42.033Z,1.93
2023-03-28T17:42:12.965Z,1.47
2023-03-28T17:44:43.896Z,1.43
2023-03-28T17:47:14.996Z,1.70
2023-03-28T17:49:46.198Z,1.80
2023-03-28T17:52:17.832Z,1.80
2023-03-28T17:54:51.699Z,1.87
2023-03-28T17:57:22.700Z,1.77
2023-03-28T17:59:57.036Z,1.90
2023-03-28T18:02:28.617Z,1.70
2023-03-28T18:04:59.537Z,1.87
2023-03-28T18:07:35.046Z,1.87
2023-03-28T18:10:09.675Z,3.33
2023-03-28T18:12:40.681Z,3.50
2023-03-28T18:15:13.150Z,3.57
2023-03-28T18:17:45.204Z,5.00
2023-03-28T18:20:16.210Z,6.57
2023-03-28T18:22:47.167Z,5.33
2023-03-28T18:25:21.132Z,5.27
2023-03-28T18:27:52.656Z,4.37
2023-03-28T18:30:23.725Z,4.40
2023-03-28T18:32:55.677Z,3.60
2023-03-28T18:35:27.186Z,4.70
2023-03-28T18:37:59.667Z,4.70
2023-03-28T18:40:34.792Z,6.27
2023-03-28T18:43:06.302Z,9.03
2023-03-28T18:45:37.856Z,3.80
2023-03-28T18:48:09.674Z,4.40
2023-03-28T18:50:42.315Z,2.70
2023-03-28T18:53:13.487Z,2.33
2023-03-28T18:55:47.177Z,2.90
2023-03-28T18:58:18.789Z,2.17
2023-03-28T19:01:00.558Z,2.27
2023-03-28T19:03:33.487Z,2.37
2023-03-28T19:06:05.509Z,2.30
2023-03-28T19:08:37.160Z,2.20
2023-03-28T19:11:13.742Z,2.50
2023-03-28T19:13:45.513Z,1.80
2023-03-28T19:16:19.378Z,2.77
2023-03-28T19:18:50.978Z,2.00
2023-03-28T19:21:23.789Z,2.07
2023-03-28T19:23:55.108Z,2.23
2023-03-28T19:26:28.888Z,2.30
2023-03-28T19:28:59.924Z,2.67
2023-03-28T19:31:31.440Z,2.40
2023-03-28T19:34:03.269Z,3.20
2023-03-28T19:36:34.307Z,2.77
2023-03-28T19:39:05.319Z,4.20
2023-03-28T19:41:42.585Z,3.27
2023-03-28T19:44:14.219Z,11.33
2023-03-28T19:46:47.288Z,6.60
2023-03-28T19:49:19.336Z,11.07
2023-03-28T19:51:50.268Z,6.70
2023-03-28T19:54:21.759Z,7.77
2023-03-28T19:56:55.601Z,3.50
2023-03-28T19:59:26.620Z,3.43
2023-03-28T20:02:00.101Z,3.53
2023-03-28T20:04:31.348Z,3.20
2023-03-28T20:07:02.873Z,3.10
2023-03-28T20:09:36.596Z,4.40
2023-03-28T20:12:10.489Z,3.00
2023-03-28T20:14:42.749Z,3.10
2023-03-28T20:17:14.506Z,3.37
2023-03-28T20:19:45.530Z,3.50
2023-03-28T20:22:18.396Z,3.80
2023-03-28T20:24:50.752Z,4.70
2023-03-28T20:27:25.414Z,6.60
2023-03-28T20:29:56.644Z,6.10
2023-03-28T20:32:37.209Z,7.23
2023-03-28T20:35:09.456Z,3.60
2023-03-28T20:37:40.801Z,2.90
2023-03-28T20:40:13.308Z,3.63
2023-03-28T20:42:46.902Z,3.17
2023-03-28T20:45:22.369Z,2.83
2023-03-28T20:47:58.970Z,2.93
2023-03-28T20:50:36.340Z,3.10
2023-03-28T20:53:10.240Z,2.70
2023-03-28T20:55:41.203Z,3.40
2023-03-28T20:58:14.839Z,2.80
2023-03-28T21:00:47.737Z,3.73
2023-03-28T21:03:18.743Z,3.53
2023-03-28T21:05:50.306Z,3.40
2023-03-28T21:08:21.674Z,3.10
2023-03-28T21:10:54.872Z,5.63
2023-03-28T21:13:28.388Z,4.33
2023-03-28T21:15:59.564Z,4.03
2023-03-28T21:18:30.542Z,3.67
2023-03-28T21:21:01.856Z,3.40
2023-03-28T21:23:37.344Z,3.10
2023-03-28T21:26:09.774Z,2.80
2023-03-28T21:28:43.639Z,2.63
2023-03-28T21:31:17.138Z,2.73
2023-03-28T21:33:48.032Z,3.00
2023-03-28T21:36:20.552Z,2.80
2023-03-28T21:38:51.916Z,3.37
2023-03-28T21:41:22.955Z,2.90
2023-03-28T21:43:56.971Z,2.93
2023-03-28T21:46:28.253Z,2.30
2023-03-28T21:48:59.204Z,2.93
2023-03-28T21:51:30.243Z,3.10
2023-03-28T21:54:01.461Z,3.43
2023-03-28T21:56:32.746Z,3.87
2023-03-28T21:59:06.874Z,2.60
2023-03-28T22:01:37.943Z,2.60
2023-03-28T22:04:08.935Z,2.80
2023-03-28T22:06:39.901Z,3.10
2023-03-28T22:09:10.936Z,3.23
2023-03-28T22:11:42.451Z,3.57
2023-03-28T22:14:18.605Z,3.07
2023-03-28T22:16:54.854Z,3.30
2023-03-28T22:19:30.891Z,3.53
2023-03-28T22:22:02.552Z,3.20
2023-03-28T22:24:34.372Z,3.40
2023-03-28T22:27:08.371Z,3.30
2023-03-28T22:29:41.930Z,3.03
2023-03-28T22:32:13.073Z,3.33
2023-03-28T22:34:45.298Z,2.53
2023-03-28T22:37:16.894Z,2.87
2023-03-28T22:39:49.229Z,3.40
2023-03-28T22:42:20.245Z,3.47
2023-03-28T22:44:56.938Z,3.50
2023-03-28T22:47:30.222Z,3.30
2023-03-28T22:50:01.287Z,3.10
2023-03-28T22:52:32.865Z,3.40
2023-03-28T22:55:04.721Z,3.17
2023-03-28T22:57:38.834Z,3.30
2023-03-28T23:00:15.346Z,3.80
2023-03-28T23:02:46.813Z,2.97
2023-03-28T23:05:17.950Z,3.30
2023-03-28T23:07:53.332Z,3.70
2023-03-28T23:10:24.471Z,3.30
2023-03-28T23:12:55.288Z,3.00
2023-03-28T23:15:29.087Z,3.30
2023-03-28T23:18:00.453Z,3.33
2023-03-28T23:20:31.462Z,3.20
2023-03-28T23:23:02.696Z,3.70
2023-03-28T23:25:39.167Z,3.20
2023-03-28T23:28:10.156Z,3.70
2023-03-28T23:30:44.247Z,3.80
2023-03-28T23:33:18.528Z,3.30
2023-03-28T23:35:49.955Z,3.00
2023-03-28T23:38:20.790Z,3.37
2023-03-28T23:40:51.725Z,3.30
2023-03-28T23:43:24.662Z,3.30
2023-03-28T23:45:58.441Z,3.40
2023-03-28T23:48:29.500Z,3.20
2023-03-28T23:51:02.225Z,3.93
2023-03-28T23:53:33.677Z,3.37
2023-03-28T23:56:05.668Z,2.80
2023-03-28T23:58:37.151Z,3.37
